Station History

Weather Underground - logo

Station Historical Data
Daily Summary for July 29, 2017 Units:  English    Metric   Both
« Previous Day
Next Day »
Daily Weekly Monthly Yearly Custom
  High: Low: Average:
Temperature: 101.8 °F 67.8 °F 85.8 °F
Dew Point: 64.7 °F 53.2 °F 59.6 °F
Humidity: 74 % 20 % 45 %
Wind Speed: 7.0 mph 0.0 mph 1.6 mph
Wind Gust: 7.0 mph - -
Wind:- - SSW
Pressure: 29.88 in 29.78 in -
Precipitation: 0.00 in    
Historical Graphs
 
 
Tabular Data for July 29, 2017
Time Temperature Dew Point Pressure Wind Wind Speed Wind Gust Humidity Rainfall Rate (Hourly)
00:00 79.1 °F 62.1 °F 29.79 in Calm     56 % 0.00 in
00:05 79.1 °F 61.5 °F 29.79 in Calm     55 % 0.00 in
00:10 79.1 °F 61.0 °F 29.79 in Calm     54 % 0.00 in
00:15 78.8 °F 61.3 °F 29.79 in Calm     55 % 0.00 in
00:20 78.3 °F 60.8 °F 29.79 in Calm     55 % 0.00 in
00:25 78.2 °F 61.7 °F 29.79 in Calm     57 % 0.00 in
00:30 78.5 °F 62.0 °F 29.79 in Calm     57 % 0.00 in
00:35 78.3 °F 60.3 °F 29.79 in Calm     54 % 0.00 in
00:40 78.8 °F 60.2 °F 29.79 in Calm     53 % 0.00 in
00:45 79.3 °F 59.0 °F 29.79 in NW 1.2 mph   50 % 0.00 in
00:50 79.6 °F 59.3 °F 29.79 in NW 1.2 mph 1.2 mph 50 % 0.00 in
00:55 79.7 °F 58.8 °F 29.79 in WNW 1.2 mph   49 % 0.00 in
01:00 79.5 °F 59.8 °F 29.79 in Calm     51 % 0.00 in
01:05 79.0 °F 59.9 °F 29.79 in Calm     52 % 0.00 in
01:10 78.0 °F 61.5 °F 29.80 in Calm     57 % 0.00 in
01:15 76.7 °F 60.8 °F 29.80 in Calm     58 % 0.00 in
01:20 75.8 °F 60.4 °F 29.80 in Calm     59 % 0.00 in
01:25 75.1 °F 60.3 °F 29.80 in Calm     60 % 0.00 in
01:30 74.9 °F 60.1 °F 29.80 in Calm     60 % 0.00 in
01:35 74.8 °F 60.9 °F 29.80 in Calm     62 % 0.00 in
01:40 74.8 °F 60.9 °F 29.80 in Calm     62 % 0.00 in
01:45 74.7 °F 61.3 °F 29.79 in Calm     63 % 0.00 in
01:50 74.7 °F 60.4 °F 29.80 in Calm     61 % 0.00 in
01:55 74.8 °F 60.0 °F 29.80 in Calm     60 % 0.00 in
02:00 74.9 °F 60.1 °F 29.80 in Calm     60 % 0.00 in
02:10 74.5 °F 60.2 °F 29.79 in Calm     61 % 0.00 in
02:15 74.1 °F 59.8 °F 29.79 in NE 1.2 mph   61 % 0.00 in
02:20 73.9 °F 60.1 °F 29.80 in Calm     62 % 0.00 in
02:25 73.7 °F 59.9 °F 29.80 in Calm     62 % 0.00 in
02:30 73.3 °F 59.9 °F 29.80 in Calm     63 % 0.00 in
02:36 72.9 °F 60.0 °F 29.80 in Calm     64 % 0.00 in
02:41 72.4 °F 60.4 °F 29.80 in Calm     66 % 0.00 in
02:46 72.0 °F 61.3 °F 29.80 in Calm     69 % 0.00 in
02:51 71.4 °F 60.7 °F 29.80 in Calm     69 % 0.00 in
02:56 71.2 °F 60.5 °F 29.80 in Calm     69 % 0.00 in
03:01 70.9 °F 61.0 °F 29.80 in Calm     71 % 0.00 in
03:06 70.5 °F 61.0 °F 29.80 in Calm     72 % 0.00 in
03:11 70.3 °F 60.8 °F 29.80 in Calm     72 % 0.00 in
03:16 70.2 °F 60.7 °F 29.80 in Calm     72 % 0.00 in
03:21 70.2 °F 60.7 °F 29.80 in NE 1.2 mph 1.2 mph 72 % 0.00 in
03:26 70.1 °F 61.0 °F 29.80 in Calm     73 % 0.00 in
03:31 69.8 °F 60.8 °F 29.80 in Calm     73 % 0.00 in
03:36 69.7 °F 60.7 °F 29.81 in Calm     73 % 0.00 in
03:41 69.6 °F 60.9 °F 29.81 in Calm     74 % 0.00 in
03:46 69.6 °F 60.6 °F 29.81 in Calm     73 % 0.00 in
03:51 69.6 °F 60.6 °F 29.81 in Calm     73 % 0.00 in
03:56 69.5 °F 60.5 °F 29.81 in Calm     73 % 0.00 in
04:01 69.5 °F 60.1 °F 29.81 in Calm     72 % 0.00 in
04:06 69.6 °F 59.8 °F 29.81 in Calm     71 % 0.00 in
04:11 69.6 °F 60.2 °F 29.81 in Calm     72 % 0.00 in
04:16 69.5 °F 59.7 °F 29.81 in Calm     71 % 0.00 in
04:21 69.3 °F 59.5 °F 29.81 in Calm     71 % 0.00 in
04:26 69.3 °F 59.1 °F 29.81 in Calm     70 % 0.00 in
04:31 69.4 °F 59.2 °F 29.81 in Calm     70 % 0.00 in
04:36 69.5 °F 59.3 °F 29.81 in Calm     70 % 0.00 in
04:41 69.5 °F 58.9 °F 29.81 in Calm   0.1 mph 69 % 0.00 in
04:46 69.7 °F 58.7 °F 29.81 in Calm     68 % 0.00 in
04:51 69.7 °F 58.7 °F 29.81 in Calm     68 % 0.00 in
04:56 69.6 °F 59.0 °F 29.82 in NE 1.2 mph   69 % 0.00 in
05:01 69.4 °F 58.8 °F 29.82 in Calm     69 % 0.00 in
05:07 69.2 °F 58.6 °F 29.82 in Calm     69 % 0.00 in
05:12 69.1 °F 58.5 °F 29.82 in Calm     69 % 0.00 in
05:17 68.9 °F 58.7 °F 29.82 in Calm     70 % 0.00 in
05:22 68.7 °F 58.5 °F 29.83 in Calm     70 % 0.00 in
05:27 68.5 °F 58.3 °F 29.82 in Calm     70 % 0.00 in
05:32 68.3 °F 58.5 °F 29.83 in NE 1.0 mph 1.0 mph 71 % 0.00 in
05:37 68.2 °F 58.4 °F 29.83 in Calm     71 % 0.00 in
05:42 68.2 °F 58.4 °F 29.83 in NE 1.2 mph 1.2 mph 71 % 0.00 in
05:47 68.4 °F 58.2 °F 29.83 in NE 1.2 mph   70 % 0.00 in
05:52 68.5 °F 58.3 °F 29.83 in NE 1.2 mph   70 % 0.00 in
05:57 68.4 °F 58.2 °F 29.83 in Calm     70 % 0.00 in
06:02 68.4 °F 58.2 °F 29.83 in Calm     70 % 0.00 in
06:07 68.3 °F 58.1 °F 29.83 in Calm     70 % 0.00 in
06:12 68.1 °F 58.3 °F 29.83 in Calm     71 % 0.00 in
06:17 68.0 °F 58.2 °F 29.84 in NE 1.2 mph 1.2 mph 71 % 0.00 in
06:22 67.9 °F 58.1 °F 29.84 in NE 1.2 mph   71 % 0.00 in
06:27 67.8 °F 58.1 °F 29.84 in NE 1.2 mph 1.2 mph 71 % 0.00 in
06:32 67.9 °F 58.1 °F 29.84 in NE 1.2 mph   71 % 0.00 in
06:37 68.0 °F 58.2 °F 29.84 in NE 1.2 mph   71 % 0.00 in
06:42 68.0 °F 58.2 °F 29.85 in Calm     71 % 0.00 in
06:47 68.3 °F 58.5 °F 29.85 in NE 1.2 mph   71 % 0.00 in
06:52 68.6 °F 58.4 °F 29.85 in Calm     70 % 0.00 in
06:57 69.1 °F 58.5 °F 29.85 in Calm     69 % 0.00 in
07:02 69.5 °F 59.3 °F 29.85 in Calm     70 % 0.00 in
07:07 69.9 °F 59.3 °F 29.85 in NE 1.2 mph 1.2 mph 69 % 0.00 in
07:12 71.2 °F 59.7 °F 29.85 in NE 1.0 mph   67 % 0.00 in
07:17 72.7 °F 59.8 °F 29.86 in ESE 1.2 mph 1.2 mph 64 % 0.00 in
07:22 73.7 °F 59.9 °F 29.86 in ESE 1.2 mph 1.2 mph 62 % 0.00 in
07:27 74.4 °F 60.5 °F 29.86 in Calm     62 % 0.00 in
07:32 75.1 °F 60.3 °F 29.86 in ESE 1.2 mph 1.2 mph 60 % 0.00 in
07:37 75.7 °F 59.9 °F 29.86 in SSW 2.3 mph 2.3 mph 58 % 0.00 in
07:42 76.3 °F 60.4 °F 29.86 in SSE 1.2 mph 1.2 mph 58 % 0.00 in
07:47 76.9 °F 61.0 °F 29.86 in South 1.2 mph 1.2 mph 58 % 0.00 in
07:52 77.4 °F 61.0 °F 29.87 in ESE 2.3 mph 2.3 mph 57 % 0.00 in
07:57 78.2 °F 60.2 °F 29.86 in South 3.5 mph 3.5 mph 54 % 0.00 in
08:02 78.8 °F 58.0 °F 29.87 in SE 3.5 mph 3.5 mph 49 % 0.00 in
08:07 79.0 °F 57.0 °F 29.87 in South 3.5 mph 3.5 mph 47 % 0.00 in
08:13 79.2 °F 57.2 °F 29.87 in SSE 2.3 mph 2.3 mph 47 % 0.00 in
08:18 79.3 °F 57.3 °F 29.87 in SSE 2.3 mph 2.3 mph 47 % 0.00 in
08:23 79.8 °F 58.4 °F 29.87 in SE 2.3 mph 2.3 mph 48 % 0.00 in
08:28 80.5 °F 57.8 °F 29.87 in SE 2.3 mph 2.3 mph 46 % 0.00 in
08:33 80.8 °F 57.5 °F 29.87 in South 1.2 mph 1.2 mph 45 % 0.00 in
08:38 81.2 °F 57.2 °F 29.87 in SSE 3.5 mph 3.5 mph 44 % 0.00 in
08:43 81.6 °F 57.6 °F 29.87 in SSE 2.3 mph 2.3 mph 44 % 0.00 in
08:48 82.1 °F 56.1 °F 29.88 in SE 2.3 mph 2.3 mph 41 % 0.00 in
08:53 82.8 °F 56.0 °F 29.88 in SE 3.5 mph 3.5 mph 40 % 0.00 in
08:58 83.3 °F 56.5 °F 29.87 in SSE 3.5 mph 3.5 mph 40 % 0.00 in
09:03 83.6 °F 56.7 °F 29.88 in SSE 3.5 mph 3.5 mph 40 % 0.00 in
09:08 84.0 °F 56.4 °F 29.87 in ESE 2.3 mph 2.3 mph 39 % 0.00 in
09:13 84.5 °F 56.8 °F 29.87 in South 3.5 mph 3.5 mph 39 % 0.00 in
09:18 84.8 °F 56.4 °F 29.87 in SE 4.0 mph 4.0 mph 38 % 0.00 in
09:23 85.4 °F 57.6 °F 29.87 in SSE 3.5 mph 3.5 mph 39 % 0.00 in
09:28 85.9 °F 57.3 °F 29.87 in SE 2.3 mph 2.3 mph 38 % 0.00 in
09:33 86.3 °F 57.0 °F 29.87 in NNE 3.5 mph 3.5 mph 37 % 0.00 in
09:38 86.6 °F 57.2 °F 29.87 in East 3.5 mph 3.5 mph 37 % 0.00 in
09:43 86.9 °F 58.2 °F 29.87 in East 4.0 mph 4.0 mph 38 % 0.00 in
09:48 87.0 °F 58.3 °F 29.87 in SSE 4.0 mph 4.0 mph 38 % 0.00 in
09:53 87.1 °F 57.7 °F 29.87 in SE 3.5 mph 3.5 mph 37 % 0.00 in
09:58 87.4 °F 57.9 °F 29.88 in SE 3.5 mph 3.5 mph 37 % 0.00 in
10:03 87.9 °F 58.4 °F 29.88 in ESE 3.5 mph 3.5 mph 37 % 0.00 in
10:08 88.1 °F 58.6 °F 29.88 in NW 1.2 mph 1.2 mph 37 % 0.00 in
10:13 88.1 °F 57.8 °F 29.88 in SE 3.5 mph 3.5 mph 36 % 0.00 in
10:18 88.3 °F 57.2 °F 29.88 in SSE 3.5 mph 3.5 mph 35 % 0.00 in
10:23 88.4 °F 59.6 °F 29.88 in SSW 3.5 mph 3.5 mph 38 % 0.00 in
10:28 88.8 °F 59.9 °F 29.88 in North 1.2 mph 1.2 mph 38 % 0.00 in
10:29 88.8 °F 59.2 °F 29.88 in South 2.3 mph 2.3 mph 37 % 0.00 in
10:34 88.8 °F 57.6 °F 29.88 in ESE 1.2 mph 1.2 mph 35 % 0.00 in
10:39 89.1 °F 58.7 °F 29.88 in West 2.3 mph 2.3 mph 36 % 0.00 in
10:44 88.9 °F 61.5 °F 29.88 in SW 1.2 mph 1.2 mph 40 % 0.00 in
10:49 89.5 °F 60.5 °F 29.88 in WNW 2.3 mph 2.3 mph 38 % 0.00 in
10:54 89.3 °F 59.6 °F 29.88 in SW 2.3 mph 2.3 mph 37 % 0.00 in
10:59 89.4 °F 60.5 °F 29.88 in East 2.3 mph 2.3 mph 38 % 0.00 in
11:04 89.9 °F 60.9 °F 29.88 in SSE 3.5 mph 3.5 mph 38 % 0.00 in
11:09 90.1 °F 61.1 °F 29.88 in NW 2.3 mph 2.3 mph 38 % 0.00 in
11:14 90.3 °F 62.0 °F 29.88 in SE 1.2 mph 1.2 mph 39 % 0.00 in
11:19 90.2 °F 61.9 °F 29.88 in SE 4.0 mph 4.0 mph 39 % 0.00 in
11:24 90.6 °F 61.5 °F 29.88 in SW 2.3 mph 2.3 mph 38 % 0.00 in
11:29 91.4 °F 61.5 °F 29.88 in Calm     37 % 0.00 in
11:34 91.8 °F 61.0 °F 29.88 in NW 2.3 mph 2.3 mph 36 % 0.00 in
11:39 91.6 °F 60.1 °F 29.88 in NW 3.5 mph 3.5 mph 35 % 0.00 in
11:44 91.6 °F 61.6 °F 29.88 in ESE 2.0 mph 2.0 mph 37 % 0.00 in
11:49 92.1 °F 61.3 °F 29.88 in Calm     36 % 0.00 in
11:54 92.5 °F 61.7 °F 29.88 in SSE 3.5 mph 3.5 mph 36 % 0.00 in
11:59 92.8 °F 60.3 °F 29.87 in NW 2.3 mph 2.3 mph 34 % 0.00 in
12:04 93.3 °F 61.6 °F 29.88 in Calm     35 % 0.00 in
12:09 93.9 °F 59.6 °F 29.87 in West 2.3 mph 2.3 mph 32 % 0.00 in
12:14 94.0 °F 60.5 °F 29.87 in ESE 3.5 mph 3.5 mph 33 % 0.00 in
12:19 94.7 °F 61.1 °F 29.87 in NNW 3.5 mph 3.5 mph 33 % 0.00 in
12:24 94.9 °F 60.4 °F 29.87 in SSW 3.5 mph 3.5 mph 32 % 0.00 in
12:29 95.5 °F 61.8 °F 29.87 in NE 2.3 mph 2.3 mph 33 % 0.00 in
12:34 95.0 °F 61.4 °F 29.87 in NW 3.5 mph 3.5 mph 33 % 0.00 in
12:39 94.8 °F 60.3 °F 29.87 in North 3.5 mph 3.5 mph 32 % 0.00 in
12:44 95.1 °F 63.9 °F 29.87 in SSE 2.3 mph 2.3 mph 36 % 0.00 in
12:49 95.3 °F 63.3 °F 29.86 in NNW 3.5 mph   35 % 0.00 in
12:54 95.4 °F 60.9 °F 29.86 in SSE 2.3 mph 2.3 mph 32 % 0.00 in
12:55 95.5 °F 62.7 °F 29.86 in SE 1.2 mph   34 % 0.00 in
13:00 96.2 °F 63.3 °F 29.86 in South 2.3 mph 2.3 mph 34 % 0.00 in
13:05 96.7 °F 61.1 °F 29.86 in West 2.3 mph 2.3 mph 31 % 0.00 in
13:10 96.3 °F 63.4 °F 29.86 in SE 1.2 mph 1.2 mph 34 % 0.00 in
13:15 96.7 °F 62.0 °F 29.86 in WNW 1.2 mph 1.2 mph 32 % 0.00 in
13:20 97.0 °F 63.1 °F 29.86 in South 3.5 mph 3.5 mph 33 % 0.00 in
13:25 97.5 °F 61.8 °F 29.85 in NW 3.0 mph 3.0 mph 31 % 0.00 in
13:30 97.4 °F 61.7 °F 29.85 in West 2.3 mph 2.3 mph 31 % 0.00 in
13:35 97.5 °F 59.9 °F 29.85 in NW 3.5 mph 3.5 mph 29 % 0.00 in
13:40 98.0 °F 62.2 °F 29.85 in West 3.5 mph 3.5 mph 31 % 0.00 in
13:45 98.7 °F 60.9 °F 29.85 in ENE 2.3 mph 2.3 mph 29 % 0.00 in
13:50 98.9 °F 55.8 °F 29.85 in North 3.5 mph 3.5 mph 24 % 0.00 in
13:55 99.4 °F 57.4 °F 29.85 in WNW 2.3 mph 2.3 mph 25 % 0.00 in
14:00 99.6 °F 59.7 °F 29.85 in North 2.3 mph 2.3 mph 27 % 0.00 in
14:05 100.3 °F 61.3 °F 29.84 in South 2.0 mph 2.0 mph 28 % 0.00 in
14:10 100.8 °F 59.6 °F 29.84 in North 1.2 mph 1.2 mph 26 % 0.00 in
14:15 100.8 °F 58.5 °F 29.84 in West 2.3 mph 2.3 mph 25 % 0.00 in
14:20 100.6 °F 61.6 °F 29.84 in NE 1.2 mph 1.2 mph 28 % 0.00 in
14:25 100.6 °F 59.5 °F 29.84 in NW 2.3 mph 2.3 mph 26 % 0.00 in
14:30 100.4 °F 59.3 °F 29.84 in WSW 3.5 mph 3.5 mph 26 % 0.00 in
14:35 100.5 °F 61.5 °F 29.84 in NNW 1.2 mph 1.2 mph 28 % 0.00 in
14:40 100.7 °F 60.6 °F 29.83 in SW 3.5 mph 3.5 mph 27 % 0.00 in
14:45 101.0 °F 57.6 °F 29.83 in NW 3.5 mph 3.5 mph 24 % 0.00 in
14:50 101.1 °F 57.7 °F 29.83 in WSW 3.5 mph 3.5 mph 24 % 0.00 in
14:55 101.3 °F 59.0 °F 29.83 in NNE 2.3 mph 2.3 mph 25 % 0.00 in
15:00 101.1 °F 57.7 °F 29.83 in ENE 3.5 mph 3.5 mph 24 % 0.00 in
15:05 101.5 °F 55.6 °F 29.83 in WSW 3.5 mph 3.5 mph 22 % 0.00 in
15:10 101.6 °F 54.4 °F 29.83 in WSW 2.3 mph 2.3 mph 21 % 0.00 in
15:15 101.8 °F 53.2 °F 29.83 in ENE 3.5 mph 3.5 mph 20 % 0.00 in
15:21 101.6 °F 54.4 °F 29.83 in NW 4.6 mph 4.6 mph 21 % 0.00 in
15:26 101.6 °F 54.4 °F 29.83 in NW 2.3 mph 2.3 mph 21 % 0.00 in
15:31 101.8 °F 53.2 °F 29.82 in South 3.5 mph 3.5 mph 20 % 0.00 in
15:36 101.6 °F 55.7 °F 29.82 in NNW 3.5 mph 3.5 mph 22 % 0.00 in
15:41 101.8 °F 57.1 °F 29.82 in NNW 2.3 mph 2.3 mph 23 % 0.00 in
15:46 101.7 °F 55.7 °F 29.82 in NW 3.5 mph 3.5 mph 22 % 0.00 in
15:51 101.7 °F 57.0 °F 29.82 in WNW 4.0 mph 4.0 mph 23 % 0.00 in
15:56 101.5 °F 54.3 °F 29.82 in NNW 4.6 mph 4.6 mph 21 % 0.00 in
16:01 101.5 °F 55.6 °F 29.82 in NW 4.6 mph 4.6 mph 22 % 0.00 in
16:06 101.6 °F 55.7 °F 29.82 in NNW 4.0 mph 4.0 mph 22 % 0.00 in
16:11 101.5 °F 54.3 °F 29.82 in NNW 5.8 mph 5.8 mph 21 % 0.00 in
16:16 101.2 °F 54.0 °F 29.81 in NW 3.5 mph 3.5 mph 21 % 0.00 in
16:21 101.1 °F 56.5 °F 29.81 in NW 2.3 mph 2.3 mph 23 % 0.00 in
16:26 101.2 °F 56.6 °F 29.81 in NNW 3.5 mph 3.5 mph 23 % 0.00 in
16:31 101.4 °F 56.7 °F 29.81 in NW 3.5 mph 3.5 mph 23 % 0.00 in
16:36 101.1 °F 55.2 °F 29.80 in NW 7.0 mph 7.0 mph 22 % 0.00 in
16:41 101.2 °F 56.6 °F 29.80 in NW 4.6 mph 4.6 mph 23 % 0.00 in
16:46 101.2 °F 56.6 °F 29.80 in NNE 4.6 mph 4.6 mph 23 % 0.00 in
16:51 101.5 °F 55.6 °F 29.80 in WNW 3.5 mph 3.5 mph 22 % 0.00 in
16:56 101.3 °F 56.6 °F 29.80 in NW 3.5 mph 3.5 mph 23 % 0.00 in
17:01 101.4 °F 59.0 °F 29.80 in WNW 3.5 mph 3.5 mph 25 % 0.00 in
17:06 101.5 °F 56.8 °F 29.80 in NW 4.6 mph 4.6 mph 23 % 0.00 in
17:11 101.6 °F 58.1 °F 29.80 in NW 3.5 mph 3.5 mph 24 % 0.00 in
17:16 101.5 °F 58.0 °F 29.80 in NW 3.5 mph 3.5 mph 24 % 0.00 in
17:21 101.4 °F 57.9 °F 29.79 in NW 3.5 mph 3.5 mph 24 % 0.00 in
17:26 101.2 °F 56.6 °F 29.79 in NW 4.6 mph 4.6 mph 23 % 0.00 in
17:31 100.9 °F 56.3 °F 29.79 in NW 4.0 mph 4.0 mph 23 % 0.00 in
17:36 100.8 °F 57.4 °F 29.79 in NW 6.9 mph 6.9 mph 24 % 0.00 in
17:41 100.7 °F 56.1 °F 29.79 in NW 6.9 mph 6.9 mph 23 % 0.00 in
17:46 100.7 °F 56.1 °F 29.79 in NW 7.0 mph 7.0 mph 23 % 0.00 in
17:51 100.7 °F 56.1 °F 29.79 in NNW 4.0 mph 4.0 mph 23 % 0.00 in
17:56 100.8 °F 57.4 °F 29.79 in WNW 4.6 mph 4.6 mph 24 % 0.00 in
17:57 100.8 °F 57.4 °F 29.79 in NW 4.6 mph 4.6 mph 24 % 0.00 in
18:02 100.8 °F 56.2 °F 29.79 in NW 3.5 mph 3.5 mph 23 % 0.00 in
18:07 100.8 °F 58.5 °F 29.79 in SW 2.3 mph 2.3 mph 25 % 0.00 in
18:12 100.7 °F 58.5 °F 29.78 in NW 3.5 mph 3.5 mph 25 % 0.00 in
18:17 100.8 °F 58.5 °F 29.79 in NE 2.3 mph 2.3 mph 25 % 0.00 in
18:22 100.8 °F 58.5 °F 29.78 in NW 2.3 mph 2.3 mph 25 % 0.00 in
18:27 100.6 °F 57.2 °F 29.78 in North 5.0 mph 5.0 mph 24 % 0.00 in
18:32 100.6 °F 57.2 °F 29.78 in NW 2.3 mph 2.3 mph 24 % 0.00 in
18:37 100.5 °F 58.3 °F 29.78 in NW 2.3 mph 2.3 mph 25 % 0.00 in
18:42 100.3 °F 58.1 °F 29.79 in NW 2.0 mph 2.0 mph 25 % 0.00 in
18:47 100.0 °F 57.9 °F 29.79 in NNW 2.3 mph 2.3 mph 25 % 0.00 in
18:52 99.8 °F 58.8 °F 29.79 in NW 1.2 mph 1.2 mph 26 % 0.00 in
18:57 99.2 °F 58.3 °F 29.79 in WNW 2.3 mph 2.3 mph 26 % 0.00 in
19:02 98.4 °F 58.7 °F 29.79 in NW 2.3 mph 2.3 mph 27 % 0.00 in
19:12 97.3 °F 58.7 °F 29.79 in Calm   0.2 mph 28 % 0.00 in
19:17 96.9 °F 58.4 °F 29.79 in NW 2.3 mph 2.3 mph 28 % 0.00 in
19:22 96.5 °F 59.0 °F 29.79 in Calm     29 % 0.00 in
19:27 96.1 °F 59.7 °F 29.79 in Calm     30 % 0.00 in
19:32 95.5 °F 59.1 °F 29.79 in Calm     30 % 0.00 in
19:37 95.0 °F 61.4 °F 29.79 in Calm     33 % 0.00 in
19:42 94.3 °F 61.6 °F 29.79 in Calm     34 % 0.00 in
19:47 93.6 °F 60.2 °F 29.80 in Calm     33 % 0.00 in
19:52 93.0 °F 59.6 °F 29.80 in Calm     33 % 0.00 in
19:57 92.5 °F 60.0 °F 29.80 in Calm     34 % 0.00 in
20:02 91.9 °F 61.9 °F 29.80 in Calm     37 % 0.00 in
20:07 91.1 °F 62.7 °F 29.80 in Calm     39 % 0.00 in
20:12 90.3 °F 61.2 °F 29.80 in Calm     38 % 0.00 in
20:17 89.5 °F 61.3 °F 29.81 in Calm     39 % 0.00 in
20:22 88.8 °F 62.7 °F 29.81 in Calm     42 % 0.00 in
20:32 88.3 °F 60.9 °F 29.81 in Calm     40 % 0.00 in
20:37 88.0 °F 62.0 °F 29.81 in Calm     42 % 0.00 in
20:42 87.6 °F 61.7 °F 29.81 in Calm     42 % 0.00 in
20:48 87.6 °F 62.3 °F 29.82 in Calm     43 % 0.00 in
20:53 87.3 °F 63.4 °F 29.82 in Calm     45 % 0.00 in
20:58 87.3 °F 61.4 °F 29.82 in Calm     42 % 0.00 in
21:03 87.4 °F 62.8 °F 29.82 in Calm     44 % 0.00 in
21:08 87.0 °F 61.8 °F 29.83 in Calm     43 % 0.00 in
21:13 87.3 °F 61.4 °F 29.83 in Calm     42 % 0.00 in
21:18 87.4 °F 61.5 °F 29.83 in Calm     42 % 0.00 in
21:23 87.4 °F 60.8 °F 29.83 in NW 1.2 mph 1.2 mph 41 % 0.00 in
21:28 87.5 °F 61.6 °F 29.83 in Calm     42 % 0.00 in
21:33 87.4 °F 61.5 °F 29.84 in Calm     42 % 0.00 in
21:38 87.2 °F 61.3 °F 29.84 in Calm     42 % 0.00 in
21:43 87.1 °F 61.2 °F 29.84 in Calm     42 % 0.00 in
21:48 87.0 °F 61.8 °F 29.84 in Calm     43 % 0.00 in
21:53 86.7 °F 62.2 °F 29.85 in Calm     44 % 0.00 in
21:58 86.0 °F 62.8 °F 29.85 in Calm     46 % 0.00 in
22:03 85.1 °F 63.2 °F 29.85 in Calm     48 % 0.00 in
22:08 84.3 °F 63.1 °F 29.85 in Calm     49 % 0.00 in
22:13 83.6 °F 64.7 °F 29.85 in Calm     53 % 0.00 in
22:18 82.6 °F 63.7 °F 29.85 in NW 1.2 mph 1.2 mph 53 % 0.00 in
22:23 82.0 °F 63.7 °F 29.85 in Calm     54 % 0.00 in
22:28 81.7 °F 63.4 °F 29.86 in Calm     54 % 0.00 in
22:33 81.8 °F 64.6 °F 29.86 in Calm     56 % 0.00 in
22:38 81.4 °F 64.2 °F 29.86 in Calm     56 % 0.00 in
22:43 80.8 °F 64.1 °F 29.86 in Calm     57 % 0.00 in
22:48 80.6 °F 63.5 °F 29.86 in Calm     56 % 0.00 in
22:53 80.7 °F 63.5 °F 29.86 in Calm     56 % 0.00 in
22:58 80.7 °F 63.0 °F 29.86 in Calm     55 % 0.00 in
23:03 81.0 °F 62.8 °F 29.86 in Calm     54 % 0.00 in
23:08 81.0 °F 62.8 °F 29.86 in Calm     54 % 0.00 in
23:18 80.5 °F 62.3 °F 29.86 in Calm     54 % 0.00 in
23:23 80.8 °F 62.1 °F 29.86 in Calm     53 % 0.00 in
23:28 81.1 °F 61.8 °F 29.86 in Calm     52 % 0.00 in
23:33 80.9 °F 61.6 °F 29.87 in Calm     52 % 0.00 in
23:38 80.5 °F 61.8 °F 29.87 in Calm     53 % 0.00 in
23:43 80.7 °F 62.0 °F 29.87 in Calm     53 % 0.00 in
23:48 80.5 °F 62.3 °F 29.87 in Calm     54 % 0.00 in
23:53 80.2 °F 62.0 °F 29.87 in Calm     54 % 0.00 in
23:58 79.9 °F 61.2 °F 29.87 in Calm     53 % 0.00 in
Park Place, Exeter, Tulare County, California, USA
Compliments of Weather Underground - 2.75 mb